Web Počasí Slunečno.cz™ (Podmínky, ePrivacy) používá cookies a personalizace pro reklamní účely. Pohybem po stránce vyjadřujete souhlas. Odejít

Aktuální počasí v Česku a ve světě - METAR

Seznam meteostanic umístěných nejčasteji na letišti v ČR a ve světě

Vyhledat místa podle abecedy:
A B C D E F G H I J K L M N O P Q R S T U V W X Y Z

Filtrovat:

ID stanice:
a/nebo
Název místa (fulltext):
 
Místo (ID)Naposledy načteno 
Červená - Opava (Cervena/uL) 28.10.2021 14:00 UTC Zobrazit data
Místo: Červená - Opava
Teplota: 10 °C (pocitová: 4.8 °C)
Vítr: 5 m/s z(e) 190°
Počasí: skorojasno
Dohlednost: 40 km
Zákl. oblačnosti: 1/8 8700 m
Vlhkost: 58%
České Budějovice (C.Budej/po) 28.10.2021 14:00 UTC Zobrazit data
Místo: České Budějovice
Teplota: 13 °C (pocitová: 10 °C)
Vítr: 3 m/s z(e) 130°
Počasí:
Dohlednost: 24 km
Zákl. oblačnosti: N/A
Vlhkost: 63%
Cheb (Cheb) 28.10.2021 14:00 UTC Zobrazit data
Místo: Cheb
Teplota: 12 °C (pocitová: 8.7 °C)
Vítr: 3 m/s z(e) 120°
Počasí: oblačno
Dohlednost: 40 km
Zákl. oblačnosti: 3/8 9000 m
Vlhkost: 63%
Chotusice - Čáslav (Caslav) 28.10.2021 14:00 UTC Zobrazit data
Místo: Chotusice - Čáslav
Teplota: 15 °C (pocitová: 11.2 °C)
Vítr: 7 m/s z(e) 150°
Počasí: skorojasno
Dohlednost: 15 km
Zákl. oblačnosti: 1/8 6900 m
Vlhkost: 45%
Churáňov (Churanov) 28.10.2021 14:00 UTC Zobrazit data
Místo: Churáňov
Teplota: 14 °C (pocitová: 12.1 °C)
Vítr: 2 m/s z(e) 180°
Počasí: oblačno
Dohlednost: 50 km
Zákl. oblačnosti: 3/8 7800 m
Vlhkost: 36%
Cairo (HECA) 28.10.2021 14:00 UTC Zobrazit METAR
HECA 281400Z 02005KT 4000 HZ SCT025 32/09 Q1011 NOSIG
Canberra (YSCB) 28.10.2021 11:00 UTC Zobrazit METAR
YSCB 281100Z AUTO 01005KT 9999 // BKN110 BKN125 19/09 Q1009
Caracas (SVMP) Zatím nenačteno  
Cayenne (SOCA) 28.10.2021 14:00 UTC Zobrazit METAR
SOCA 281400Z AUTO 08006KT 020V120 9999 SCT031 BKN040 BKN050 31/22 Q1015 NOSIG
Charlotte Amalie (TIST) 28.10.2021 13:53 UTC Zobrazit METAR
TIST 281353Z 14008KT 10SM FEW032 29/21 A3004 RMK AO2 SLP172 T02890211
Chisinau (LUKK) 28.10.2021 14:00 UTC Zobrazit METAR
LUKK 281400Z 27006KT CAVOK 17/04 Q1025 R08/CLRD// NOSIG
Colombo (VCBI) 28.10.2021 13:10 UTC Zobrazit METAR
VCBI 281310Z 05005KT 8000 -SHRA BKN016 23/23 Q1009 NOSIG
Conakry (GUCY) 28.10.2021 13:00 UTC Zobrazit METAR
GUCY 281300Z 12006KT 9999 FEW013 BKN100 28/24 Q1011 NOSIG
Constanta (LRCK) 28.10.2021 14:00 UTC Zobrazit METAR
LRCK 281400Z 11005KT CAVOK 14/06 Q1027 NOSIG
Constantine (DABC) 28.10.2021 13:00 UTC Zobrazit METAR
DABC 281300Z 22004KT 9999 SCT023 BKN090 18/08 Q1018
Copenhagen (EKCH) 28.10.2021 11:50 UTC Zobrazit METAR
EKCH 281150Z AUTO 19011KT 9999 FEW010/// 13/11 Q1018 NOSIG
Cork (EICK) 28.10.2021 14:00 UTC Zobrazit METAR
EICK 281400Z 21011KT 9999 SCT012 BKN018 15/13 Q0996 NOSIG
Cotonou (DBBB) 28.10.2021 14:00 UTC Zobrazit METAR
DBBB 281400Z 20009KT 160V220 9999 SCT013 31/25 Q1010 NOSIG
Curacao Island (TNCC) 28.10.2021 13:00 UTC Zobrazit METAR
TNCC 281300Z 12011KT 9999 FEW016 28/25 Q1014 NOSIG
Reklama

Reklama


Newslettter

Počasí na Váš email

Každý den Vám pošleme předpověď
Emaily chodí ráno a bez reklamy



Odhlásit newsletter


Další české internetové stránky o počasí najdete v katalogu TOPlist - weby o počasí nebo vyhledejte na internetu, co jste tu na Počasí Slunečno Slunečnu zatím nenašli:
Reklama